Time;durP1;ratioP1;P1;durP2;ratioP2;P2;SDS_P1;SDS_P2;PMS_P1;PMS_P2;Temp;Humidity;BMP_temperature;BMP_pressure;BME280_temperature;BME280_humidity;BME280_pressure;Samples;Min_cycle;Max_cycle;Signal;HPM_P1;HPM_P2
2024/01/17 00:02:11;;;;;;;1.10;1.10;;;;;;;-6.58;100.00;98016.47;4996059;28;20435;-59
2024/01/17 00:04:39;;;;;;;1.15;1.15;;;;;;;-6.57;100.00;97999.03;4997254;28;20042;-59
2024/01/17 00:07:06;;;;;;;1.10;1.10;;;;;;;-6.44;100.00;97995.94;4995014;28;20046;-58
2024/01/17 00:09:33;;;;;;;1.02;1.02;;;;;;;-6.62;100.00;97998.72;4994046;28;20053;-59
2024/01/17 00:12:04;;;;;;;1.00;1.00;;;;;;;-6.97;100.00;97996.25;4990768;28;20058;-59
2024/01/17 00:14:31;;;;;;;1.10;1.10;;;;;;;-7.18;100.00;97994.09;4999100;28;20049;-59
2024/01/17 00:16:59;;;;;;;1.10;1.10;;;;;;;-7.18;100.00;97986.28;4998927;28;20400;-59
2024/01/17 00:19:29;;;;;;;1.02;1.02;;;;;;;-7.28;100.00;97988.22;4991074;28;20046;-59
2024/01/17 00:21:59;;;;;;;1.10;1.10;;;;;;;-7.29;100.00;97970.97;5000136;28;20136;-59
2024/01/17 00:24:26;;;;;;;1.10;1.10;;;;;;;-7.41;100.00;97978.28;5013480;28;20042;-59
2024/01/17 00:26:53;;;;;;;1.10;1.10;;;;;;;-7.48;100.00;97973.88;4999332;28;20077;-59
2024/01/17 00:29:20;;;;;;;1.00;1.00;;;;;;;-7.46;100.00;97964.09;5002878;28;20033;-59
2024/01/17 00:31:47;;;;;;;1.10;1.10;;;;;;;-7.44;100.00;97955.19;4999208;28;20497;-59
2024/01/17 00:34:15;;;;;;;1.00;1.00;;;;;;;-7.49;100.00;97943.59;5001453;28;20131;-59
2024/01/17 00:36:42;;;;;;;1.00;1.00;;;;;;;-7.49;100.00;97933.97;4998198;28;20566;-59
2024/01/17 00:39:12;;;;;;;1.00;1.00;;;;;;;-7.44;100.00;97925.69;4994147;28;20046;-58
2024/01/17 00:41:39;;;;;;;1.00;1.00;;;;;;;-7.42;100.00;97923.75;5001996;28;20045;-59
2024/01/17 00:44:06;;;;;;;1.10;1.10;;;;;;;-7.45;100.00;97916.28;5011612;28;20084;-59
2024/01/17 00:46:33;;;;;;;1.10;1.10;;;;;;;-7.44;100.00;97910.09;5014136;28;20038;-59
2024/01/17 00:49:01;;;;;;;1.00;1.00;;;;;;;-7.28;100.00;97915.34;5013907;28;20091;-59
2024/01/17 00:51:28;;;;;;;1.10;1.10;;;;;;;-7.37;100.00;97913.69;5024085;28;20083;-59
2024/01/17 00:53:55;;;;;;;1.08;1.08;;;;;;;-7.35;100.00;97909.13;5015742;28;20487;-59
2024/01/17 00:56:23;;;;;;;1.15;1.15;;;;;;;-7.29;100.00;97912.88;5020020;28;20057;-59
2024/01/17 00:58:50;;;;;;;1.08;1.08;;;;;;;-7.25;100.00;97920.22;5014679;28;20046;-59
2024/01/17 01:01:17;;;;;;;1.00;1.00;;;;;;;-7.13;100.00;97907.69;5014997;28;20867;-59
2024/01/17 01:03:44;;;;;;;1.00;1.00;;;;;;;-6.62;100.00;97907.50;5014067;28;20045;-60
2024/01/17 01:06:12;;;;;;;1.10;1.10;;;;;;;-6.54;100.00;97897.88;5014066;28;20127;-59
2024/01/17 01:08:39;;;;;;;1.10;1.10;;;;;;;-6.12;100.00;97901.16;5016411;28;20706;-59
2024/01/17 01:11:07;;;;;;;1.00;1.00;;;;;;;-6.24;100.00;97902.50;5015796;28;20056;-59
2024/01/17 01:13:36;;;;;;;1.00;1.00;;;;;;;-6.32;100.00;97900.75;5012068;28;20489;-59
2024/01/17 01:16:03;;;;;;;1.00;1.00;;;;;;;-6.47;100.00;97894.59;5013738;28;20394;-59
2024/01/17 01:18:31;;;;;;;1.10;1.10;;;;;;;-6.47;100.00;97886.78;5019299;28;20557;-59
2024/01/17 01:20:58;;;;;;;0.98;0.98;;;;;;;-6.33;100.00;97894.72;5020849;28;20037;-59
2024/01/17 01:23:27;;;;;;;1.00;1.00;;;;;;;-6.35;100.00;97888.84;5020819;28;20657;-59
2024/01/17 01:25:54;;;;;;;1.00;1.00;;;;;;;-6.43;100.00;97894.09;5018772;28;20064;-59
2024/01/17 01:28:21;;;;;;;0.90;0.90;;;;;;;-6.56;100.00;97884.19;5031303;28;20408;-60
2024/01/17 01:30:50;;;;;;;1.10;1.10;;;;;;;-6.65;100.00;97882.56;5009099;28;20041;-60
2024/01/17 01:33:17;;;;;;;1.00;1.00;;;;;;;-6.61;100.00;97876.06;5014669;28;20052;-60
2024/01/17 01:35:45;;;;;;;1.20;1.20;;;;;;;-6.72;100.00;97881.59;5019907;28;20048;-59
2024/01/17 01:38:12;;;;;;;0.80;0.80;;;;;;;-6.83;100.00;97872.34;5020139;28;20038;-59
2024/01/17 01:40:39;;;;;;;1.00;1.00;;;;;;;-6.83;100.00;97872.34;5016831;28;20042;-59
2024/01/17 01:43:18;;;;;;;1.10;1.10;;;;;;;-6.90;100.00;97873.97;5026748;28;20403;-60
2024/01/17 01:45:46;;;;;;;1.10;1.10;;;;;;;-6.56;100.00;97863.34;5041567;28;20045;-59
2024/01/17 01:48:15;;;;;;;1.00;1.00;;;;;;;-6.21;100.00;97850.84;5040711;28;20734;-59
2024/01/17 01:50:42;;;;;;;1.10;1.10;;;;;;;-6.45;100.00;97858.75;5043334;28;20507;-59
2024/01/17 01:53:10;;;;;;;1.10;1.10;;;;;;;-6.83;100.00;97854.09;5032378;28;20037;-60
2024/01/17 01:55:38;;;;;;;1.10;1.10;;;;;;;-6.69;100.00;97842.19;5039447;28;20041;-60
2024/01/17 01:58:05;;;;;;;1.10;1.10;;;;;;;-6.65;100.00;97845.28;5022937;28;20068;-60
2024/01/17 02:00:32;;;;;;;1.10;1.10;;;;;;;-6.85;100.00;97843.03;5024118;28;20530;-59
2024/01/17 02:03:00;;;;;;;1.00;1.00;;;;;;;-7.13;100.00;97833.97;5039370;28;20574;-59
2024/01/17 02:05:28;;;;;;;1.00;1.00;;;;;;;-7.18;100.00;97830.06;5037767;28;20124;-59
2024/01/17 02:07:56;;;;;;;1.10;1.10;;;;;;;-7.28;100.00;97826.81;5023429;28;20132;-59
2024/01/17 02:10:23;;;;;;;1.10;1.10;;;;;;;-7.25;100.00;97820.47;5039847;28;20092;-59
2024/01/17 02:12:50;;;;;;;1.00;1.00;;;;;;;-7.24;100.00;97822.91;5040734;28;20116;-59
2024/01/17 02:15:17;;;;;;;1.10;1.10;;;;;;;-7.27;100.00;97812.81;5036383;28;20045;-59
2024/01/17 02:17:44;;;;;;;1.05;1.05;;;;;;;-7.49;100.00;97800.44;5029778;28;20056;-60
2024/01/17 02:20:12;;;;;;;1.00;1.00;;;;;;;-7.16;100.00;97783.84;5025910;28;20518;-59
2024/01/17 02:22:41;;;;;;;1.02;1.02;;;;;;;-7.11;100.00;97790.31;5037665;28;20123;-60
2024/01/17 02:25:10;;;;;;;1.10;1.10;;;;;;;-7.12;100.00;97778.28;5025198;28;20051;-60
2024/01/17 02:27:38;;;;;;;1.10;1.10;;;;;;;-7.11;100.00;97775.53;5040904;28;20049;-59
2024/01/17 02:30:06;;;;;;;1.00;1.00;;;;;;;-7.15;100.00;97769.03;5040591;28;20041;-60
2024/01/17 02:32:34;;;;;;;1.10;1.10;;;;;;;-7.09;100.00;97773.56;5039148;28;20048;-59
2024/01/17 02:35:01;;;;;;;1.05;1.05;;;;;;;-7.09;100.00;97767.53;5041366;28;20373;-59
2024/01/17 02:37:28;;;;;;;1.10;1.10;;;;;;;-6.98;100.00;97756.78;5043203;28;20036;-59
2024/01/17 02:39:55;;;;;;;1.20;1.20;;;;;;;-6.95;100.00;97754.63;5041732;28;20068;-59
2024/01/17 02:42:24;;;;;;;1.00;1.00;;;;;;;-6.95;100.00;97752.03;5019307;28;20041;-59
2024/01/17 02:44:51;;;;;;;1.20;1.20;;;;;;;-6.87;100.00;97745.19;5021359;28;20161;-59
2024/01/17 02:47:18;;;;;;;1.00;1.00;;;;;;;-7.02;100.00;97742.44;5039857;28;20045;-58
2024/01/17 02:49:45;;;;;;;1.15;1.15;;;;;;;-7.11;100.00;97735.63;5024650;28;20044;-58
2024/01/17 02:52:12;;;;;;;1.08;1.08;;;;;;;-7.21;100.00;97718.44;5038785;28;20045;-58
2024/01/17 02:54:40;;;;;;;1.00;1.00;;;;;;;-7.23;100.00;97709.97;5039813;28;20473;-59
2024/01/17 02:57:07;;;;;;;1.10;1.10;;;;;;;-7.29;100.00;97721.03;5038426;28;20045;-59
2024/01/17 02:59:37;;;;;;;1.10;1.10;;;;;;;-7.37;100.00;97714.03;5041267;28;20045;-59
2024/01/17 03:02:04;;;;;;;1.15;1.15;;;;;;;-7.39;100.00;97715.19;5021635;28;20069;-59
2024/01/17 03:04:31;;;;;;;1.10;1.10;;;;;;;-7.57;100.00;97707.56;5041838;28;20568;-59
2024/01/17 03:06:58;;;;;;;1.10;1.10;;;;;;;-7.52;100.00;97709.69;5041661;28;20118;-59
2024/01/17 03:09:26;;;;;;;1.20;1.20;;;;;;;-7.31;100.00;97712.59;5025162;28;20076;-59
2024/01/17 03:11:53;;;;;;;1.10;1.10;;;;;;;-7.26;100.00;97712.91;5042614;28;20091;-58
2024/01/17 03:14:20;;;;;;;1.10;1.10;;;;;;;-7.26;100.00;97707.69;5041372;28;20486;-59
2024/01/17 03:16:49;;;;;;;1.00;1.00;;;;;;;-7.33;100.00;97711.94;5042258;28;20401;-59
2024/01/17 03:19:16;;;;;;;1.15;1.15;;;;;;;-7.38;100.00;97706.41;5039971;28;20044;-59
2024/01/17 03:21:46;;;;;;;1.00;1.00;;;;;;;-7.48;100.00;97695.38;5037655;28;20055;-59
2024/01/17 03:24:13;;;;;;;1.00;1.00;;;;;;;-7.61;100.00;97701.91;5038682;28;20749;-59
2024/01/17 03:26:40;;;;;;;1.20;1.20;;;;;;;-7.75;100.00;97693.94;5040394;28;20040;-59
2024/01/17 03:29:07;;;;;;;1.20;1.20;;;;;;;-7.96;100.00;97686.63;5037794;28;20049;-59
2024/01/17 03:31:34;;;;;;;1.10;1.10;;;;;;;-8.04;100.00;97675.28;5036848;28;20107;-59
2024/01/17 03:34:02;;;;;;;1.00;1.00;;;;;;;-7.96;100.00;97673.63;5040625;28;20045;-59
2024/01/17 03:36:31;;;;;;;1.10;1.10;;;;;;;-7.99;100.00;97671.34;5022039;28;20417;-59
2024/01/17 03:38:58;;;;;;;1.00;1.00;;;;;;;-7.87;100.00;97665.66;5041575;28;20033;-59
2024/01/17 03:41:25;;;;;;;1.10;1.10;;;;;;;-7.78;100.00;97655.25;5041799;28;20048;-59
2024/01/17 03:43:52;;;;;;;1.10;1.10;;;;;;;-7.79;100.00;97653.63;5042095;28;20065;-59
2024/01/17 03:46:21;;;;;;;1.10;1.10;;;;;;;-7.80;100.00;97652.81;5038241;28;20091;-59
2024/01/17 03:48:48;;;;;;;1.00;1.00;;;;;;;-7.83;100.00;97647.94;5023542;28;20053;-59
2024/01/17 03:51:17;;;;;;;1.20;1.20;;;;;;;-7.89;100.00;97646.78;5041393;28;20099;-59
2024/01/17 03:53:46;;;;;;;1.10;1.10;;;;;;;-7.84;100.00;97638.50;5036565;28;20049;-59
2024/01/17 03:56:13;;;;;;;1.10;1.10;;;;;;;-7.84;100.00;97634.13;5041356;28;20045;-59
2024/01/17 03:58:40;;;;;;;1.10;1.10;;;;;;;-7.98;100.00;97620.97;5023525;28;20077;-59
2024/01/17 04:01:07;;;;;;;1.10;1.10;;;;;;;-8.13;100.00;97613.84;5039889;28;20043;-59
2024/01/17 04:03:34;;;;;;;1.20;1.20;;;;;;;-7.82;100.00;97581.94;5040208;28;20134;-59
2024/01/17 04:06:02;;;;;;;1.10;1.10;;;;;;;-8.09;100.00;97583.09;5041454;28;20059;-59
2024/01/17 04:08:31;;;;;;;1.00;1.00;;;;;;;-8.06;100.00;97575.81;5040765;28;20047;-59
2024/01/17 04:10:58;;;;;;;1.10;1.10;;;;;;;-7.98;100.00;97574.19;5039829;28;20091;-59
2024/01/17 04:13:25;;;;;;;1.20;1.20;;;;;;;-7.99;100.00;97569.94;5038131;28;20410;-59
2024/01/17 04:15:52;;;;;;;1.00;1.00;;;;;;;-8.05;100.00;97559.22;5039174;28;20075;-59
2024/01/17 04:18:19;;;;;;;1.00;1.00;;;;;;;-8.09;100.00;97552.72;5022284;28;20779;-59
2024/01/17 04:20:46;;;;;;;1.10;1.10;;;;;;;-8.12;100.00;97553.06;5039638;28;20045;-59
2024/01/17 04:23:15;;;;;;;1.00;1.00;;;;;;;-8.17;100.00;97547.53;5042051;28;20450;-59
2024/01/17 04:25:43;;;;;;;1.00;1.00;;;;;;;-8.19;100.00;97539.09;5039042;28;20947;-58
2024/01/17 04:28:10;;;;;;;1.10;1.10;;;;;;;-7.85;100.00;97527.66;5037795;28;20049;-59
2024/01/17 04:30:37;;;;;;;1.10;1.10;;;;;;;-8.07;100.00;97523.97;5035287;28;20380;-59
2024/01/17 04:33:05;;;;;;;1.10;1.10;;;;;;;-7.98;100.00;97522.97;5039159;28;20057;-59
2024/01/17 04:35:34;;;;;;;1.13;1.13;;;;;;;-8.03;100.00;97513.06;5040963;28;20395;-59
2024/01/17 04:38:02;;;;;;;1.10;1.10;;;;;;;-8.03;100.00;97504.47;5041883;28;20049;-58
2024/01/17 04:40:30;;;;;;;1.15;1.15;;;;;;;-8.00;100.00;97492.91;5040997;28;20044;-59
2024/01/17 04:42:58;;;;;;;1.05;1.05;;;;;;;-7.94;100.00;97492.22;5038998;28;20054;-58
2024/01/17 04:45:25;;;;;;;1.10;1.10;;;;;;;-7.96;100.00;97487.22;5040710;28;20045;-58
2024/01/17 04:47:52;;;;;;;1.10;1.10;;;;;;;-8.05;100.00;97480.41;5039160;28;20051;-58
2024/01/17 04:50:19;;;;;;;1.00;1.00;;;;;;;-7.96;100.00;97465.56;5021550;28;20716;-59
2024/01/17 04:52:46;;;;;;;1.08;1.08;;;;;;;-8.01;100.00;97458.31;5039450;28;20037;-59
2024/01/17 04:55:15;;;;;;;1.00;1.00;;;;;;;-7.86;100.00;97454.03;5022814;28;20052;-59
2024/01/17 04:57:42;;;;;;;1.00;1.00;;;;;;;-7.65;100.00;97456.03;5039781;28;20067;-59
2024/01/17 05:00:14;;;;;;;1.10;1.10;;;;;;;-7.57;100.00;97447.38;5041308;28;20071;-59
2024/01/17 05:02:42;;;;;;;1.02;1.02;;;;;;;-7.60;100.00;97458.13;5039735;28;20094;-58
2024/01/17 05:05:10;;;;;;;1.10;1.10;;;;;;;-7.67;100.00;97446.75;5037923;28;20056;-59
2024/01/17 05:07:37;;;;;;;1.20;1.20;;;;;;;-7.69;100.00;97446.94;5038927;28;20083;-59
2024/01/17 05:10:06;;;;;;;1.10;1.10;;;;;;;-7.66;100.00;97441.41;5043702;28;20041;-59
2024/01/17 05:12:33;;;;;;;1.10;1.10;;;;;;;-7.67;100.00;97429.38;5043277;28;20481;-60
2024/01/17 05:14:59;;;;;;;1.15;1.15;;;;;;;-7.64;100.00;97426.44;5023822;28;20053;-59
2024/01/17 05:17:29;;;;;;;1.00;1.00;;;;;;;-7.43;100.00;97419.81;5041059;28;20124;-59
2024/01/17 05:19:56;;;;;;;1.20;1.20;;;;;;;-7.50;100.00;97411.06;5042017;28;20045;-59
2024/01/17 05:22:23;;;;;;;1.10;1.10;;;;;;;-7.46;100.00;97417.53;5042487;28;20203;-59
2024/01/17 05:24:50;;;;;;;1.10;1.10;;;;;;;-7.39;100.00;97413.25;5043137;28;20530;-59
2024/01/17 05:27:17;;;;;;;1.10;1.10;;;;;;;-7.34;100.00;97407.53;5043339;28;20045;-59
2024/01/17 05:29:44;;;;;;;1.10;1.10;;;;;;;-7.30;100.00;97396.59;5040438;28;20178;-59
2024/01/17 05:32:11;;;;;;;1.20;1.20;;;;;;;-7.30;100.00;97396.59;5040562;28;20048;-59
2024/01/17 05:34:42;;;;;;;1.10;1.10;;;;;;;-7.41;100.00;97397.84;5040590;28;20041;-59
2024/01/17 05:37:10;;;;;;;1.10;1.10;;;;;;;-7.28;100.00;97388.63;5042734;28;20045;-59
2024/01/17 05:39:37;;;;;;;1.13;1.13;;;;;;;-7.23;100.00;97375.91;5029890;28;20065;-59
2024/01/17 05:42:04;;;;;;;1.02;1.02;;;;;;;-7.19;100.00;97378.00;5040983;28;20048;-59
2024/01/17 05:44:31;;;;;;;1.00;1.00;;;;;;;-7.24;100.00;97372.50;5039400;28;20049;-60
2024/01/17 05:46:58;;;;;;;0.98;0.98;;;;;;;-7.43;100.00;97365.16;5040295;28;20041;-59
2024/01/17 05:49:25;;;;;;;1.08;1.08;;;;;;;-7.44;100.00;97353.09;5044133;28;20044;-59
2024/01/17 05:51:54;;;;;;;1.00;1.00;;;;;;;-7.40;100.00;97349.19;5043252;28;20057;-59
2024/01/17 05:54:21;;;;;;;1.10;1.10;;;;;;;-7.32;100.00;97351.72;5040269;28;20089;-60
2024/01/17 05:56:48;;;;;;;1.10;1.10;;;;;;;-7.36;100.00;97345.25;5018057;28;20045;-59
2024/01/17 05:59:15;;;;;;;1.02;1.02;;;;;;;-7.31;100.00;97335.13;5041277;28;20630;-61
2024/01/17 06:01:42;;;;;;;1.10;1.10;;;;;;;-7.27;100.00;97335.56;5040732;28;20549;-59
2024/01/17 06:04:09;;;;;;;1.10;1.10;;;;;;;-7.43;100.00;97331.31;5043293;28;20045;-60
2024/01/17 06:06:36;;;;;;;1.10;1.10;;;;;;;-7.23;100.00;97319.44;5041740;28;20132;-59
2024/01/17 06:09:07;;;;;;;1.10;1.10;;;;;;;-7.09;100.00;97327.44;5040834;28;20587;-60
2024/01/17 06:11:34;;;;;;;1.10;1.10;;;;;;;-7.07;100.00;97326.28;5023696;28;20045;-59
2024/01/17 06:14:01;;;;;;;1.10;1.10;;;;;;;-7.01;100.00;97316.97;5039729;28;20045;-59
2024/01/17 06:16:28;;;;;;;1.10;1.10;;;;;;;-6.99;100.00;97322.78;5041213;28;20132;-59
2024/01/17 06:18:59;;;;;;;1.00;1.00;;;;;;;-6.95;100.00;97317.03;5036484;28;20045;-59
2024/01/17 06:21:26;;;;;;;1.10;1.10;;;;;;;-6.93;100.00;97309.06;5043057;28;20079;-60
2024/01/17 06:23:53;;;;;;;0.95;0.95;;;;;;;-7.03;100.00;97292.88;5036751;28;20297;-59
2024/01/17 06:26:22;;;;;;;1.20;1.20;;;;;;;-7.04;100.00;97291.25;5033563;28;20044;-59
2024/01/17 06:28:49;;;;;;;1.10;1.10;;;;;;;-6.99;100.00;97294.97;5033511;28;20095;-60
2024/01/17 06:31:22;;;;;;;1.10;1.10;;;;;;;-6.78;100.00;97293.44;5033087;28;20140;-59
2024/01/17 06:33:49;;;;;;;1.00;1.00;;;;;;;-6.68;100.00;97285.34;5036405;28;20067;-59
2024/01/17 06:36:16;;;;;;;1.08;1.08;;;;;;;-6.80;100.00;97277.19;5018516;28;20053;-60
2024/01/17 06:38:44;;;;;;;1.00;1.00;;;;;;;-6.75;100.00;97278.25;5034958;28;20060;-59
2024/01/17 06:41:11;;;;;;;0.77;0.77;;;;;;;-6.73;100.00;97270.25;5023333;28;20045;-59
2024/01/17 06:43:40;;;;;;;0.93;0.93;;;;;;;-6.66;100.00;97267.72;5038096;28;20065;-59
2024/01/17 06:46:07;;;;;;;1.00;1.00;;;;;;;-6.62;100.00;97266.38;5037574;28;20067;-59
2024/01/17 06:48:34;;;;;;;1.00;1.00;;;;;;;-6.59;100.00;97256.41;5039223;28;20077;-60
2024/01/17 06:51:01;;;;;;;1.08;1.08;;;;;;;-6.64;100.00;97260.53;5039412;28;20136;-59
2024/01/17 06:53:28;;;;;;;1.10;1.10;;;;;;;-6.63;100.00;97251.75;5041257;28;20047;-60
2024/01/17 06:55:55;;;;;;;1.10;1.10;;;;;;;-6.60;100.00;97256.59;5032159;28;20045;-59
2024/01/17 06:58:22;;;;;;;1.10;1.10;;;;;;;-6.66;100.00;97252.09;5021593;28;20111;-59
2024/01/17 07:00:51;;;;;;;1.08;1.08;;;;;;;-6.68;100.00;97243.66;5039184;28;20305;-59
2024/01/17 07:03:18;;;;;;;1.02;1.02;;;;;;;-6.70;100.00;97245.63;5022646;28;20045;-59
2024/01/17 07:05:45;;;;;;;1.10;1.10;;;;;;;-6.62;100.00;97245.53;5032486;28;20044;-59
2024/01/17 07:08:12;;;;;;;1.10;1.10;;;;;;;-6.59;100.00;97238.19;5036770;28;20045;-59
2024/01/17 07:10:40;;;;;;;1.10;1.10;;;;;;;-6.53;100.00;97226.22;5034946;28;20484;-60
2024/01/17 07:13:08;;;;;;;1.00;1.00;;;;;;;-6.58;100.00;97221.53;5037928;28;20041;-59
2024/01/17 07:15:35;;;;;;;1.08;1.08;;;;;;;-6.51;100.00;97219.81;5020173;28;20052;-60
2024/01/17 07:18:04;;;;;;;1.00;1.00;;;;;;;-6.49;100.00;97221.41;5031291;28;20053;-59
2024/01/17 07:20:32;;;;;;;1.02;1.02;;;;;;;-6.57;100.00;97214.53;5028587;28;20525;-60
2024/01/17 07:22:59;;;;;;;1.00;1.00;;;;;;;-6.44;100.00;97206.88;5032841;28;20052;-58
2024/01/17 07:25:27;;;;;;;1.10;1.10;;;;;;;-6.43;100.00;97203.25;5030451;28;20049;-58
2024/01/17 07:27:54;;;;;;;0.85;0.85;;;;;;;-6.37;100.00;97199.91;5036371;28;20600;-59
2024/01/17 07:30:21;;;;;;;1.00;1.00;;;;;;;-6.26;100.00;97203.84;5036579;28;20053;-58
2024/01/17 07:32:48;;;;;;;1.00;1.00;;;;;;;-6.18;100.00;97188.06;5021557;28;20512;-59
2024/01/17 07:35:17;;;;;;;1.00;1.00;;;;;;;-6.12;100.00;97186.50;5033288;28;20071;-59
2024/01/17 07:37:44;;;;;;;1.00;1.00;;;;;;;-6.01;100.00;97182.63;5032073;28;20884;-58
2024/01/17 07:40:12;;;;;;;1.10;1.10;;;;;;;-5.82;100.00;97173.28;5041354;28;20432;-59
2024/01/17 07:42:39;;;;;;;1.00;1.00;;;;;;;-5.82;100.00;97168.06;5021560;28;20045;-59
2024/01/17 07:45:07;;;;;;;0.90;0.90;;;;;;;-5.82;100.00;97170.69;5033153;28;20053;-58
2024/01/17 07:47:34;;;;;;;1.00;1.00;;;;;;;-5.74;100.00;97167.94;5041012;28;20091;-59
2024/01/17 07:50:01;;;;;;;1.10;1.10;;;;;;;-5.73;100.00;97159.94;5015883;28;20057;-58
2024/01/17 07:52:30;;;;;;;1.10;1.10;;;;;;;-5.68;100.00;97151.53;5033922;28;20140;-58
2024/01/17 07:54:57;;;;;;;1.00;1.00;;;;;;;-5.72;100.00;97142.47;5017621;28;20052;-58
2024/01/17 07:57:24;;;;;;;1.00;1.00;;;;;;;-5.80;100.00;97137.38;5038640;28;20056;-59
2024/01/17 07:59:51;;;;;;;1.08;1.08;;;;;;;-5.78;100.00;97135.41;5039629;28;20402;-59
2024/01/17 08:02:19;;;;;;;1.00;1.00;;;;;;;-5.71;100.00;97123.22;5034968;28;20049;-59
2024/01/17 08:04:48;;;;;;;1.00;1.00;;;;;;;-5.58;100.00;97119.88;5033597;28;20041;-59
2024/01/17 08:07:15;;;;;;;1.00;1.00;;;;;;;-5.46;100.00;97108.72;5039359;28;20052;-59
2024/01/17 08:09:44;;;;;;;1.00;1.00;;;;;;;-5.33;100.00;97107.16;5034854;28;20376;-59
2024/01/17 08:12:11;;;;;;;0.90;0.90;;;;;;;-5.28;100.00;97099.56;5034950;28;20045;-59
2024/01/17 08:14:38;;;;;;;1.10;1.10;;;;;;;-5.18;100.00;97099.19;5035070;28;20037;-60
2024/01/17 08:17:06;;;;;;;1.02;1.02;;;;;;;-5.09;100.00;97095.41;5037737;28;20048;-60
2024/01/17 08:19:34;;;;;;;1.10;1.10;;;;;;;-5.05;100.00;97088.81;5038143;28;20069;-59
2024/01/17 08:22:02;;;;;;;1.00;1.00;;;;;;;-5.01;100.00;97084.81;5035262;28;20049;-60
2024/01/17 08:24:29;;;;;;;1.10;1.10;;;;;;;-4.88;100.00;97095.28;5038627;28;20170;-60
2024/01/17 08:26:59;;;;;;;1.00;1.00;;;;;;;-4.86;100.00;97076.81;5017061;28;20058;-60
2024/01/17 08:29:27;;;;;;;1.00;1.00;;;;;;;-4.88;100.00;97076.19;5036894;28;20087;-61
2024/01/17 08:31:54;;;;;;;1.00;1.00;;;;;;;-4.72;100.00;97069.78;5036817;28;20048;-58
2024/01/17 08:34:21;;;;;;;1.10;1.10;;;;;;;-4.62;100.00;97065.81;5037565;28;20155;-58
2024/01/17 08:36:54;;;;;;;1.00;1.00;;;;;;;-4.67;100.00;97062.97;5032232;28;20050;-60
2024/01/17 08:39:21;;;;;;;1.02;1.02;;;;;;;-4.36;100.00;97061.63;5022362;28;20394;-58
2024/01/17 08:41:48;;;;;;;1.10;1.10;;;;;;;-4.45;100.00;97057.56;5023862;28;20103;-60
2024/01/17 08:44:18;;;;;;;0.95;0.95;;;;;;;-4.52;100.00;97051.53;5036733;28;20049;-60
2024/01/17 08:46:46;;;;;;;1.00;1.00;;;;;;;-4.38;100.00;97043.50;5033478;28;20057;-58
2024/01/17 08:49:14;;;;;;;1.00;1.00;;;;;;;-4.23;100.00;97045.91;5034518;28;20041;-60
2024/01/17 08:51:43;;;;;;;1.00;1.00;;;;;;;-4.14;100.00;97029.00;5024403;28;20051;-60
2024/01/17 08:54:12;;;;;;;0.90;0.90;;;;;;;-4.12;100.00;97021.78;5041960;28;20091;-61
2024/01/17 08:56:40;;;;;;;1.05;1.05;;;;;;;-4.55;100.00;97011.69;5042076;28;21981;-62
2024/01/17 08:59:07;;;;;;;0.90;0.90;;;;;;;-4.34;100.00;97012.53;5027507;28;20566;-60
2024/01/17 09:01:35;;;;;;;1.00;1.00;;;;;;;-4.34;100.00;97005.47;5038753;28;20594;-61
2024/01/17 09:04:03;;;;;;;0.82;0.82;;;;;;;-4.22;100.00;97000.47;5017987;28;20140;-61
2024/01/17 09:06:30;;;;;;;1.00;1.00;;;;;;;-4.29;100.00;96994.41;5025589;28;20049;-58
2024/01/17 09:08:57;;;;;;;0.90;0.90;;;;;;;-4.10;100.00;96997.22;5034670;28;20045;-61
2024/01/17 09:11:24;;;;;;;0.98;0.98;;;;;;;-4.22;100.00;96995.22;5026766;28;20304;-61
2024/01/17 09:13:52;;;;;;;1.00;1.00;;;;;;;-4.15;100.00;96982.91;5038433;28;20457;-61
2024/01/17 09:16:19;;;;;;;1.10;1.10;;;;;;;-4.20;100.00;96982.72;5037326;28;20159;-61
2024/01/17 09:18:47;;;;;;;0.80;0.80;;;;;;;-4.10;100.00;96973.66;5023967;28;20744;-59
2024/01/17 09:21:15;;;;;;;1.10;1.10;;;;;;;-4.10;100.00;96971.03;5037444;28;20049;-60
2024/01/17 09:23:42;;;;;;;1.02;1.02;;;;;;;-4.01;100.00;96964.59;5040236;28;20037;-60
2024/01/17 09:26:09;;;;;;;1.00;1.00;;;;;;;-4.06;100.00;96965.19;5040786;28;20046;-60
2024/01/17 09:28:36;;;;;;;1.00;1.00;;;;;;;-3.94;100.00;96965.38;5039004;28;20044;-60
2024/01/17 09:31:04;;;;;;;1.08;1.08;;;;;;;-3.95;100.00;96961.13;5040347;28;20087;-60
2024/01/17 09:33:31;;;;;;;0.90;0.90;;;;;;;-4.17;100.00;96966.63;5024143;28;20072;-60
2024/01/17 09:36:00;;;;;;;1.05;1.05;;;;;;;-3.94;100.00;96960.16;5037400;28;20045;-59
2024/01/17 09:38:27;;;;;;;1.00;1.00;;;;;;;-4.02;100.00;96950.72;5033121;28;20036;-59
2024/01/17 09:40:54;;;;;;;1.00;1.00;;;;;;;-3.87;100.00;96945.22;5042080;28;20045;-59
2024/01/17 09:43:21;;;;;;;0.90;0.90;;;;;;;-3.79;100.00;96947.63;5033901;28;20045;-60
2024/01/17 09:45:48;;;;;;;1.00;1.00;;;;;;;-3.69;100.00;96941.94;5029775;28;20132;-60
2024/01/17 09:48:16;;;;;;;0.98;0.98;;;;;;;-3.69;100.00;96937.50;5039301;28;20825;-59
2024/01/17 09:50:43;;;;;;;1.10;1.10;;;;;;;-3.65;100.00;96931.84;5044340;28;20037;-59
2024/01/17 09:53:12;;;;;;;1.00;1.00;;;;;;;-3.69;100.00;96928.84;5037836;28;20052;-59
2024/01/17 09:55:40;;;;;;;0.93;0.93;;;;;;;-3.61;100.00;96936.47;5042814;28;20057;-59
2024/01/17 09:58:07;;;;;;;0.95;0.95;;;;;;;-3.69;100.00;96927.03;5035907;28;20064;-59
2024/01/17 10:00:34;;;;;;;1.00;1.00;;;;;;;-3.55;100.00;96924.34;5039593;28;20045;-60
2024/01/17 10:03:01;;;;;;;0.90;0.90;;;;;;;-3.54;100.00;96918.91;5041829;28;20045;-59
2024/01/17 10:05:30;;;;;;;0.93;0.93;;;;;;;-3.50;100.00;96908.81;5028450;28;20056;-60
2024/01/17 10:07:58;;;;;;;1.00;1.00;;;;;;;-3.45;100.00;96908.97;5036412;28;20037;-60
2024/01/17 10:10:27;;;;;;;0.90;0.90;;;;;;;-3.34;100.00;96900.47;5039955;28;20060;-58
2024/01/17 10:12:55;;;;;;;0.93;0.93;;;;;;;-3.28;100.00;96897.00;5035649;28;20403;-61
2024/01/17 10:15:23;;;;;;;1.00;1.00;;;;;;;-3.26;100.00;96894.97;5031990;28;20044;-59
2024/01/17 10:17:51;;;;;;;1.00;1.00;;;;;;;-3.10;100.00;96885.78;5033181;28;20053;-58
2024/01/17 10:20:18;;;;;;;0.90;0.90;;;;;;;-3.08;100.00;96875.91;5035943;28;20179;-59
2024/01/17 10:22:46;;;;;;;0.90;0.90;;;;;;;-3.00;100.00;96876.66;5021277;28;20036;-59
2024/01/17 10:25:14;;;;;;;0.90;0.90;;;;;;;-3.00;100.00;96872.22;5020976;28;20459;-59
2024/01/17 10:27:42;;;;;;;1.00;1.00;;;;;;;-2.85;100.00;96871.91;5007833;28;20048;-58
2024/01/17 10:30:11;;;;;;;0.90;0.90;;;;;;;-2.87;100.00;96873.91;5037082;28;20145;-59
2024/01/17 10:32:41;;;;;;;0.98;0.98;;;;;;;-2.82;100.00;96861.00;5026265;28;20049;-59
2024/01/17 10:35:09;;;;;;;0.90;0.90;;;;;;;-2.71;100.00;96865.53;5037971;28;20045;-59
2024/01/17 10:37:37;;;;;;;0.80;0.80;;;;;;;-2.75;100.00;96858.31;5019081;28;20083;-60
2024/01/17 10:40:11;;;;;;;0.90;0.90;;;;;;;-2.69;100.00;96847.75;5040136;28;20045;-59
2024/01/17 10:42:40;;;;;;;0.90;0.90;;;;;;;-2.59;100.00;96849.91;5029561;28;20126;-59
2024/01/17 10:45:10;;;;;;;0.90;0.90;;;;;;;-2.88;100.00;96843.50;5035221;28;20045;-60
2024/01/17 10:47:38;;;;;;;0.73;0.73;;;;;;;-2.68;100.00;96827.59;5034842;28;20044;-59
2024/01/17 10:50:06;;;;;;;0.90;0.90;;;;;;;-2.62;100.00;96829.34;5035573;28;20136;-60
2024/01/17 10:52:34;;;;;;;0.90;0.90;;;;;;;-2.56;100.00;96825.84;5029892;28;20075;-60
2024/01/17 10:55:05;;;;;;;0.80;0.80;;;;;;;-2.51;100.00;96812.88;5028821;28;20064;-59
2024/01/17 10:57:33;;;;;;;0.82;0.82;;;;;;;-2.50;100.00;96809.22;5031202;28;20056;-59
2024/01/17 11:00:02;;;;;;;0.80;0.80;;;;;;;-2.53;100.00;96814.91;5039349;28;20087;-60
2024/01/17 11:02:31;;;;;;;0.80;0.80;;;;;;;-2.57;100.00;96800.66;5032183;28;20150;-58
2024/01/17 11:04:59;;;;;;;0.82;0.82;;;;;;;-2.43;100.00;96799.47;5039222;28;20624;-60
2024/01/17 11:07:27;;;;;;;0.88;0.88;;;;;;;-2.35;100.00;96793.13;5028967;28;20046;-60
2024/01/17 11:09:54;;;;;;;0.90;0.90;;;;;;;-2.38;100.00;96786.50;5033132;28;20438;-59
2024/01/17 11:12:21;;;;;;;0.90;0.90;;;;;;;-2.44;100.00;96774.28;5035283;28;20048;-60
2024/01/17 11:14:50;;;;;;;0.90;0.90;;;;;;;-2.44;100.00;96776.09;5036561;28;20388;-59
2024/01/17 11:17:17;;;;;;;0.88;0.88;;;;;;;-2.42;100.00;96769.59;5040063;28;20049;-60
2024/01/17 11:19:46;;;;;;;0.90;0.90;;;;;;;-2.46;100.00;96765.00;5030962;28;20332;-60
2024/01/17 11:22:13;;;;;;;0.70;0.70;;;;;;;-2.34;100.00;96765.09;5035223;28;20049;-60
2024/01/17 11:24:42;;;;;;;0.90;0.90;;;;;;;-2.34;100.00;96754.59;5036339;28;20084;-59
2024/01/17 11:27:12;;;;;;;0.75;0.75;;;;;;;-2.34;100.00;96754.59;5033204;28;20069;-60